Time;durP1;ratioP1;P1;durP2;ratioP2;P2;SDS_P1;SDS_P2;PMS_P1;PMS_P2;Temp;Humidity;BMP_temperature;BMP_pressure;BME280_temperature;BME280_humidity;BME280_pressure;Samples;Min_cycle;Max_cycle;Signal;HPM_P1;HPM_P2
2022/04/13 00:00:00;;;;;;;;;;;15.50;73.30;15.80;99243.00;;;;346696;28;94098;-87
2022/04/13 00:00:14;;;;;;;;;;;15.50;73.30;15.80;99245.00;;;;346267;28;82297;-88
2022/04/13 00:00:27;;;;;;;;;;;15.50;73.30;15.70;99250.00;;;;345458;28;96266;-88
2022/04/13 00:00:39;;;;;;;;;;;15.50;73.90;15.70;99243.00;;;;347481;27;83990;-88
2022/04/13 00:00:51;;;;;;;;;;;15.50;74.00;15.80;99240.00;;;;346819;28;95900;-87
2022/04/13 00:01:02;;;;;;;;;;;15.50;73.70;15.80;99248.00;;;;347563;27;83340;-88
2022/04/13 00:01:14;;;;;;;;;;;15.50;73.50;15.70;99245.00;;;;347871;27;98131;-87
2022/04/13 00:01:26;;;;;;;;;;;15.50;73.70;15.80;99253.00;;;;347664;28;83225;-87
2022/04/13 00:01:38;;;;;;;;;;;15.50;73.50;15.80;99245.00;;;;346738;28;96419;-87
2022/04/13 00:01:50;;;;;;;;;;;15.50;73.50;15.70;99253.00;;;;344841;28;83222;-89
2022/04/13 00:02:02;;;;;;;;;;;15.50;73.80;15.70;99244.00;;;;344088;28;97039;-88
2022/04/13 00:02:14;;;;;;;;;;;15.50;74.30;15.70;99250.00;;;;346298;28;83439;-88
2022/04/13 00:02:26;;;;;;;;;;;15.50;74.50;15.60;99255.00;;;;345392;28;97412;-87
2022/04/13 00:02:38;;;;;;;;;;;15.50;74.40;15.50;99239.00;;;;344736;28;82837;-88
2022/04/13 00:02:50;;;;;;;;;;;15.50;74.30;15.50;99248.00;;;;345041;28;97268;-88
2022/04/13 00:03:02;;;;;;;;;;;15.40;74.60;15.50;99244.00;;;;346205;28;83293;-88
2022/04/13 00:03:15;;;;;;;;;;;15.40;74.70;15.50;99247.00;;;;343854;28;98190;-87
2022/04/13 00:03:26;;;;;;;;;;;15.40;74.80;15.50;99245.00;;;;343234;28;83344;-88
2022/04/13 00:03:38;;;;;;;;;;;15.40;74.60;15.50;99243.00;;;;344034;28;96223;-88
2022/04/13 00:03:50;;;;;;;;;;;15.40;74.00;15.50;99245.00;;;;344702;28;83432;-88
2022/04/13 00:04:02;;;;;;;;;;;15.40;73.60;15.60;99242.00;;;;345169;28;96688;-87
2022/04/13 00:04:15;;;;;;;;;;;15.40;73.40;15.60;99249.00;;;;344750;28;82507;-88
2022/04/13 00:04:27;;;;;;;;;;;15.40;73.80;15.60;99249.00;;;;345341;28;95940;-87
2022/04/13 00:04:39;;;;;;;;;;;15.40;73.90;15.60;99250.00;;;;347014;27;82449;-88
2022/04/13 00:04:51;;;;;;;;;;;15.40;74.30;15.60;99238.00;;;;345352;28;96107;-88
2022/04/13 00:05:02;;;;;;;;;;;15.40;74.50;15.60;99250.00;;;;347340;28;82402;-88
2022/04/13 00:05:14;;;;;;;;;;;15.40;74.30;15.50;99249.00;;;;345197;28;95070;-88
2022/04/13 00:05:26;;;;;;;;;;;15.40;74.30;15.50;99244.00;;;;344817;28;83280;-88
2022/04/13 00:05:38;;;;;;;;;;;15.40;74.10;15.50;99240.00;;;;342620;28;96450;-88
2022/04/13 00:05:50;;;;;;;;;;;15.40;74.00;15.50;99245.00;;;;345999;28;83264;-88
2022/04/13 00:06:01;;;;;;;;;;;15.30;73.90;15.50;99249.00;;;;345463;28;95415;-87
2022/04/13 00:06:15;;;;;;;;;;;15.40;73.80;15.60;99247.00;;;;345995;28;83365;-88
2022/04/13 00:06:26;;;;;;;;;;;15.30;73.60;15.60;99252.00;;;;343977;28;95831;-88
2022/04/13 00:06:38;;;;;;;;;;;15.40;73.70;15.60;99252.00;;;;344740;28;83347;-87
2022/04/13 00:06:50;;;;;;;;;;;15.30;73.80;15.50;99247.00;;;;343996;28;97343;-88
2022/04/13 00:07:02;;;;;;;;;;;15.40;74.20;15.50;99247.00;;;;344731;28;82399;-88
2022/04/13 00:07:14;;;;;;;;;;;15.30;74.30;15.50;99245.00;;;;347829;27;97449;-88
2022/04/13 00:07:26;;;;;;;;;;;15.30;74.30;15.50;99251.00;;;;347435;28;83428;-88
2022/04/13 00:07:38;;;;;;;;;;;15.30;74.20;15.50;99258.00;;;;347624;27;92950;-88
2022/04/13 00:07:49;;;;;;;;;;;15.30;73.90;15.50;99244.00;;;;347523;28;83332;-88
2022/04/13 00:08:05;;;;;;;;;;;15.30;73.70;15.60;99254.00;;;;344004;28;96882;-87
2022/04/13 00:08:17;;;;;;;;;;;15.30;73.60;15.50;99250.00;;;;344918;28;82473;-88
2022/04/13 00:08:30;;;;;;;;;;;15.30;73.70;15.50;99245.00;;;;345039;28;96829;-88
2022/04/13 00:08:44;;;;;;;;;;;15.30;74.00;15.50;99250.00;;;;347567;28;82408;-88
2022/04/13 00:08:55;;;;;;;;;;;15.30;73.80;15.40;99246.00;;;;344035;28;95491;-87
2022/04/13 00:09:08;;;;;;;;;;;15.30;74.10;15.40;99256.00;;;;344794;28;83296;-87
2022/04/13 00:09:20;;;;;;;;;;;15.30;74.10;15.50;99253.00;;;;345184;28;97891;-88
2022/04/13 00:09:31;;;;;;;;;;;15.30;73.80;15.50;99247.00;;;;346181;28;83441;-88
2022/04/13 00:09:43;;;;;;;;;;;15.30;73.60;15.50;99249.00;;;;342695;28;96240;-88
2022/04/13 00:09:55;;;;;;;;;;;15.30;73.60;15.70;99251.00;;;;346047;28;82619;-88
2022/04/13 00:10:07;;;;;;;;;;;15.30;73.50;15.70;99253.00;;;;345771;28;96068;-87
2022/04/13 00:10:19;;;;;;;;;;;15.30;73.70;15.60;99250.00;;;;345135;28;83302;-88
2022/04/13 00:10:32;;;;;;;;;;;15.30;73.80;15.60;99246.00;;;;346489;28;96655;-88
2022/04/13 00:10:44;;;;;;;;;;;15.30;73.60;15.60;99245.00;;;;350485;27;82445;-88
2022/04/13 00:10:56;;;;;;;;;;;15.30;73.50;15.60;99242.00;;;;346572;28;96110;-88
2022/04/13 00:11:08;;;;;;;;;;;15.30;73.60;15.60;99253.00;;;;346644;28;82271;-88
2022/04/13 00:11:20;;;;;;;;;;;15.30;73.50;15.60;99249.00;;;;348058;27;94739;-88
2022/04/13 00:11:32;;;;;;;;;;;15.30;73.50;15.60;99250.00;;;;348959;27;83179;-88
2022/04/13 00:11:43;;;;;;;;;;;15.30;73.50;15.60;99251.00;;;;346706;28;96967;-87
2022/04/13 00:11:55;;;;;;;;;;;15.30;73.40;15.60;99247.00;;;;348946;27;83409;-88
2022/04/13 00:12:08;;;;;;;;;;;15.30;73.40;15.60;99250.00;;;;348125;27;96347;-88
2022/04/13 00:12:19;;;;;;;;;;;15.30;73.40;15.50;99245.00;;;;346209;28;83378;-88
2022/04/13 00:12:31;;;;;;;;;;;15.30;73.60;15.50;99245.00;;;;343991;28;94098;-88
2022/04/13 00:12:43;;;;;;;;;;;15.30;73.60;15.50;99246.00;;;;348970;27;82542;-88
2022/04/13 00:12:55;;;;;;;;;;;15.30;73.80;15.60;99256.00;;;;348158;27;96443;-88
2022/04/13 00:13:08;;;;;;;;;;;15.30;73.80;15.70;99252.00;;;;346772;28;82602;-88
2022/04/13 00:13:19;;;;;;;;;;;15.30;73.40;15.60;99243.00;;;;344223;28;97727;-87
2022/04/13 00:13:31;;;;;;;;;;;15.30;73.40;15.60;99250.00;;;;346207;28;82380;-88
2022/04/13 00:13:43;;;;;;;;;;;15.30;73.40;15.60;99247.00;;;;345411;28;93798;-88
2022/04/13 00:13:55;;;;;;;;;;;15.30;73.20;15.70;99251.00;;;;347483;28;83254;-88
2022/04/13 00:14:07;;;;;;;;;;;15.30;73.10;15.80;99244.00;;;;346588;28;95513;-88
2022/04/13 00:14:22;;;;;;;;;;;15.30;73.20;15.70;99247.00;;;;348936;27;83436;-88
2022/04/13 00:14:34;;;;;;;;;;;15.30;73.10;15.60;99247.00;;;;346533;28;97109;-88
2022/04/13 00:14:47;;;;;;;;;;;15.30;72.90;15.70;99252.00;;;;348963;27;83407;-87
2022/04/13 00:14:58;;;;;;;;;;;15.30;72.70;15.70;99249.00;;;;345402;28;94038;-88
2022/04/13 00:15:10;;;;;;;;;;;15.30;72.80;15.70;99245.00;;;;347454;28;83407;-87
2022/04/13 00:15:22;;;;;;;;;;;15.30;72.80;15.60;99257.00;;;;345347;28;97502;-88
2022/04/13 00:15:34;;;;;;;;;;;15.30;72.90;15.50;99250.00;;;;347547;28;82465;-88
2022/04/13 00:15:45;;;;;;;;;;;15.30;73.00;15.60;99248.00;;;;348238;27;94713;-88
2022/04/13 00:15:57;;;;;;;;;;;15.30;72.90;15.60;99254.00;;;;347496;27;83395;-87
2022/04/13 00:16:09;;;;;;;;;;;15.30;72.80;15.60;99246.00;;;;347703;27;93809;-87
2022/04/13 00:16:21;;;;;;;;;;;15.30;73.60;15.60;99245.00;;;;348803;27;82615;-88
2022/04/13 00:16:33;;;;;;;;;;;15.30;73.00;15.60;99250.00;;;;347829;27;96461;-87
2022/04/13 00:16:45;;;;;;;;;;;15.30;72.90;15.60;99254.00;;;;347475;28;83550;-88
2022/04/13 00:16:57;;;;;;;;;;;15.30;73.00;15.60;99252.00;;;;346710;28;96730;-87
2022/04/13 00:17:08;;;;;;;;;;;15.30;73.50;15.60;99258.00;;;;347390;28;83312;-88
2022/04/13 00:17:22;;;;;;;;;;;15.30;72.90;15.60;99254.00;;;;348152;27;94063;-88
2022/04/13 00:17:35;;;;;;;;;;;15.30;72.80;15.60;99255.00;;;;347541;28;82534;-88
2022/04/13 00:17:47;;;;;;;;;;;15.30;72.80;15.60;99250.00;;;;345091;28;96900;-88
2022/04/13 00:18:00;;;;;;;;;;;15.30;72.90;15.60;99245.00;;;;347373;28;82575;-88
2022/04/13 00:18:12;;;;;;;;;;;15.30;73.20;15.60;99254.00;;;;346747;28;96633;-88
2022/04/13 00:18:24;;;;;;;;;;;15.30;73.30;15.60;99247.00;;;;347475;28;83499;-88
2022/04/13 00:18:35;;;;;;;;;;;15.30;73.10;15.70;99245.00;;;;344005;28;93871;-88
2022/04/13 00:18:47;;;;;;;;;;;15.30;73.00;15.70;99249.00;;;;344698;28;83312;-88
2022/04/13 00:18:59;;;;;;;;;;;15.30;72.90;15.70;99244.00;;;;345335;28;96864;-88
2022/04/13 00:19:10;;;;;;;;;;;15.30;72.90;15.70;99249.00;;;;345359;28;82538;-88
2022/04/13 00:19:23;;;;;;;;;;;15.30;72.90;15.70;99254.00;;;;345160;28;97652;-88
2022/04/13 00:19:35;;;;;;;;;;;15.40;73.00;15.70;99249.00;;;;347518;28;82332;-88
2022/04/13 00:19:47;;;;;;;;;;;15.30;73.50;15.70;99248.00;;;;346736;28;95344;-88
2022/04/13 00:19:59;;;;;;;;;;;15.30;72.80;15.70;99242.00;;;;348603;27;83331;-88
2022/04/13 00:20:12;;;;;;;;;;;15.40;72.90;15.60;99254.00;;;;346394;28;94252;-88
2022/04/13 00:20:24;;;;;;;;;;;15.30;73.10;15.60;99248.00;;;;346106;28;83216;-88
2022/04/13 00:20:36;;;;;;;;;;;15.30;73.10;15.50;99250.00;;;;346768;28;92826;-87
2022/04/13 00:20:48;;;;;;;;;;;15.30;73.30;15.60;99254.00;;;;348875;27;83374;-88
2022/04/13 00:20:59;;;;;;;;;;;15.30;73.20;15.60;99253.00;;;;346695;28;96559;-88
2022/04/13 00:21:11;;;;;;;;;;;15.30;73.50;15.60;99256.00;;;;347462;28;83178;-88
2022/04/13 00:21:23;;;;;;;;;;;15.30;73.50;15.50;99252.00;;;;347806;27;98190;-87
2022/04/13 00:21:35;;;;;;;;;;;15.30;73.70;15.60;99249.00;;;;346015;28;83357;-88
2022/04/13 00:21:47;;;;;;;;;;;15.30;73.50;15.70;99251.00;;;;345264;28;96380;-88
2022/04/13 00:21:58;;;;;;;;;;;15.30;73.30;15.70;99250.00;;;;346092;28;82574;-88
2022/04/13 00:22:10;;;;;;;;;;;15.30;73.20;15.50;99242.00;;;;346651;27;96384;-87
2022/04/13 00:22:22;;;;;;;;;;;15.30;73.90;15.50;99244.00;;;;349317;27;82328;-88
2022/04/13 00:22:34;;;;;;;;;;;15.30;73.30;15.60;99244.00;;;;346536;27;96257;-88
2022/04/13 00:22:45;;;;;;;;;;;15.30;73.00;15.60;99245.00;;;;347527;28;83384;-87
2022/04/13 00:22:57;;;;;;;;;;;15.30;73.00;15.60;99247.00;;;;343909;28;97234;-88
2022/04/13 00:23:11;;;;;;;;;;;15.30;73.00;15.60;99249.00;;;;348191;27;83593;-88
2022/04/13 00:23:23;;;;;;;;;;;15.30;73.00;15.50;99241.00;;;;348050;27;94248;-88
2022/04/13 00:23:35;;;;;;;;;;;15.30;73.20;15.50;99247.00;;;;348823;27;83338;-88
2022/04/13 00:23:46;;;;;;;;;;;15.30;73.30;15.50;99245.00;;;;343890;28;96409;-88
2022/04/13 00:23:58;;;;;;;;;;;15.20;73.20;15.50;99239.00;;;;346142;28;83523;-88
2022/04/13 00:24:12;;;;;;;;;;;15.30;73.20;15.50;99239.00;;;;345347;28;96884;-88
2022/04/13 00:24:24;;;;;;;;;;;15.20;73.30;15.40;99246.00;;;;347565;28;83300;-88
2022/04/13 00:24:35;;;;;;;;;;;15.30;73.30;15.40;99247.00;;;;344998;28;96434;-87
2022/04/13 00:24:47;;;;;;;;;;;15.20;73.00;15.40;99240.00;;;;347430;28;83357;-88
2022/04/13 00:24:59;;;;;;;;;;;15.20;72.90;15.50;99244.00;;;;348112;27;96248;-88
2022/04/13 00:25:11;;;;;;;;;;;15.20;72.80;15.50;99239.00;;;;345819;28;82577;-88
2022/04/13 00:25:23;;;;;;;;;;;15.20;72.80;15.60;99239.00;;;;345122;28;96205;-87
2022/04/13 00:25:38;;;;;;;;;;;15.30;72.90;15.60;99242.00;;;;346972;28;83427;-87
2022/04/13 00:25:50;;;;;;;;;;;15.30;73.10;15.60;99245.00;;;;346611;28;97283;-87
2022/04/13 00:26:02;;;;;;;;;;;15.20;73.00;15.50;99252.00;;;;347509;28;82404;-87
2022/04/13 00:26:13;;;;;;;;;;;15.20;72.90;15.50;99238.00;;;;346614;28;95136;-88
2022/04/13 00:26:25;;;;;;;;;;;15.20;73.10;15.50;99235.00;;;;344676;28;83333;-88
2022/04/13 00:26:37;;;;;;;;;;;15.30;73.20;15.40;99250.00;;;;346704;28;96424;-88
2022/04/13 00:26:49;;;;;;;;;;;15.20;73.20;15.40;99239.00;;;;344456;28;83428;-87
2022/04/13 00:27:01;;;;;;;;;;;15.20;73.20;15.30;99241.00;;;;344018;28;95200;-88
2022/04/13 00:27:13;;;;;;;;;;;15.20;73.30;15.50;99238.00;;;;344614;28;83381;-88
2022/04/13 00:27:24;;;;;;;;;;;15.20;73.10;15.40;99241.00;;;;346672;28;97540;-88
2022/04/13 00:27:36;;;;;;;;;;;15.20;73.30;15.50;99239.00;;;;344882;28;83211;-88
2022/04/13 00:27:48;;;;;;;;;;;15.20;73.10;15.50;99243.00;;;;343877;28;96696;-88
2022/04/13 00:28:00;;;;;;;;;;;15.20;73.20;15.50;99234.00;;;;346191;28;82423;-87
2022/04/13 00:28:11;;;;;;;;;;;15.20;73.10;15.50;99242.00;;;;346446;28;96565;-87
2022/04/13 00:28:23;;;;;;;;;;;15.20;73.00;15.50;99234.00;;;;345966;28;83566;-88
2022/04/13 00:28:36;;;;;;;;;;;15.20;73.10;15.50;99244.00;;;;346685;28;93742;-88
2022/04/13 00:28:47;;;;;;;;;;;15.20;73.20;15.40;99237.00;;;;344682;28;83275;-88
2022/04/13 00:28:59;;;;;;;;;;;15.20;73.20;15.40;99239.00;;;;344039;28;94181;-87
2022/04/13 00:29:11;;;;;;;;;;;15.20;73.20;15.50;99235.00;;;;348451;27;82525;-88
2022/04/13 00:29:25;;;;;;;;;;;15.20;73.00;15.50;99233.00;;;;345273;28;96323;-88
2022/04/13 00:29:37;;;;;;;;;;;15.20;72.90;15.40;99238.00;;;;348918;27;83192;-88
2022/04/13 00:29:49;;;;;;;;;;;15.20;73.10;15.40;99242.00;;;;346686;28;96458;-88
2022/04/13 00:30:01;;;;;;;;;;;15.20;73.20;15.40;99238.00;;;;348892;27;83284;-88
2022/04/13 00:30:13;;;;;;;;;;;15.20;73.00;15.60;99242.00;;;;343963;28;97162;-88
2022/04/13 00:30:25;;;;;;;;;;;15.20;73.00;15.50;99239.00;;;;347224;28;82404;-88
2022/04/13 00:30:37;;;;;;;;;;;15.20;73.30;15.50;99240.00;;;;345298;28;93052;-87
2022/04/13 00:30:49;;;;;;;;;;;15.20;73.10;15.50;99249.00;;;;347559;28;82619;-87
2022/04/13 00:31:01;;;;;;;;;;;15.20;73.10;15.50;99249.00;;;;347887;27;97715;-88
2022/04/13 00:31:12;;;;;;;;;;;15.20;73.00;15.50;99243.00;;;;348512;27;82594;-88
2022/04/13 00:31:24;;;;;;;;;;;15.20;73.00;15.50;99235.00;;;;347863;27;96897;-88
2022/04/13 00:31:36;;;;;;;;;;;15.20;73.20;15.50;99238.00;;;;348891;27;82500;-88
2022/04/13 00:31:48;;;;;;;;;;;15.20;73.40;15.40;99235.00;;;;346588;28;96539;-88
2022/04/13 00:32:03;;;;;;;;;;;15.20;73.30;15.40;99242.00;;;;346168;28;83562;-88
2022/04/13 00:32:14;;;;;;;;;;;15.20;73.30;15.40;99246.00;;;;346772;28;96230;-88
2022/04/13 00:32:26;;;;;;;;;;;15.20;73.20;15.50;99239.00;;;;348896;27;83320;-88
2022/04/13 00:32:38;;;;;;;;;;;15.20;73.20;15.50;99242.00;;;;349487;27;96361;-88
2022/04/13 00:32:50;;;;;;;;;;;15.20;73.30;15.40;99240.00;;;;347601;28;82311;-87
2022/04/13 00:33:02;;;;;;;;;;;15.20;73.40;15.50;99243.00;;;;343999;28;94224;-87
2022/04/13 00:33:13;;;;;;;;;;;15.10;73.40;15.40;99237.00;;;;344659;28;83342;-88
2022/04/13 00:33:25;;;;;;;;;;;15.10;73.40;15.50;99242.00;;;;345161;28;97314;-88
2022/04/13 00:33:37;;;;;;;;;;;15.20;73.30;15.50;99235.00;;;;346206;28;82421;-88
2022/04/13 00:33:48;;;;;;;;;;;15.10;73.00;15.50;99239.00;;;;345251;28;95981;-88
2022/04/13 00:34:00;;;;;;;;;;;15.10;73.20;15.50;99244.00;;;;347527;28;83508;-87
2022/04/13 00:34:12;;;;;;;;;;;15.10;73.30;15.50;99238.00;;;;346133;28;95305;-88
2022/04/13 00:34:25;;;;;;;;;;;15.10;73.20;15.60;99241.00;;;;347409;28;83415;-88
2022/04/13 00:34:37;;;;;;;;;;;15.20;73.20;15.50;99237.00;;;;345850;28;96316;-88
2022/04/13 00:34:49;;;;;;;;;;;15.10;73.20;15.60;99234.00;;;;347486;28;83426;-88
2022/04/13 00:35:04;;;;;;;;;;;15.10;73.20;15.60;99237.00;;;;345369;28;92710;-88
2022/04/13 00:35:17;;;;;;;;;;;15.10;73.20;15.60;99232.00;;;;347367;28;82513;-87
2022/04/13 00:35:28;;;;;;;;;;;15.10;73.40;15.50;99233.00;;;;347890;27;98026;-87
2022/04/13 00:35:40;;;;;;;;;;;15.20;73.40;15.60;99234.00;;;;346164;28;83400;-88
2022/04/13 00:35:55;;;;;;;;;;;15.20;73.30;15.50;99237.00;;;;346576;28;97633;-88
2022/04/13 00:36:07;;;;;;;;;;;15.20;73.40;15.60;99237.00;;;;346141;28;83113;-88
2022/04/13 00:36:18;;;;;;;;;;;15.20;73.20;15.60;99236.00;;;;349443;27;97278;-88
2022/04/13 00:36:30;;;;;;;;;;;15.20;73.10;15.50;99240.00;;;;347436;28;83244;-88
2022/04/13 00:36:42;;;;;;;;;;;15.20;73.20;15.50;99240.00;;;;346687;28;96340;-88
2022/04/13 00:36:57;;;;;;;;;;;15.20;73.30;15.50;99233.00;;;;347493;28;82333;-88
2022/04/13 00:37:09;;;;;;;;;;;15.20;73.40;15.40;99241.00;;;;344643;28;96645;-88
2022/04/13 00:37:21;;;;;;;;;;;15.20;73.40;15.40;99237.00;;;;347411;27;83478;-89
2022/04/13 00:37:32;;;;;;;;;;;15.10;73.40;15.50;99236.00;;;;346464;28;98342;-88
2022/04/13 00:37:44;;;;;;;;;;;15.20;74.00;15.60;99235.00;;;;346231;28;83417;-88
2022/04/13 00:37:57;;;;;;;;;;;15.10;73.30;15.60;99241.00;;;;346590;28;96462;-88
2022/04/13 00:38:09;;;;;;;;;;;15.20;73.40;15.70;99248.00;;;;347390;28;83492;-88
2022/04/13 00:38:22;;;;;;;;;;;15.20;73.30;15.60;99243.00;;;;346584;28;96947;-88
2022/04/13 00:38:34;;;;;;;;;;;15.20;73.30;15.50;99243.00;;;;347500;28;83342;-88
2022/04/13 00:38:45;;;;;;;;;;;15.20;73.40;15.50;99243.00;;;;345291;28;96561;-88
2022/04/13 00:38:57;;;;;;;;;;;15.20;73.40;15.60;99239.00;;;;347420;28;83426;-87
2022/04/13 00:39:09;;;;;;;;;;;15.20;73.50;15.60;99242.00;;;;348061;27;96200;-88
2022/04/13 00:39:21;;;;;;;;;;;15.20;73.60;15.50;99241.00;;;;347485;28;83463;-87
2022/04/13 00:39:32;;;;;;;;;;;15.20;73.50;15.50;99236.00;;;;348052;27;97401;-87
2022/04/13 00:39:45;;;;;;;;;;;15.20;73.40;15.50;99240.00;;;;349016;27;83343;-88
2022/04/13 00:39:57;;;;;;;;;;;15.20;73.40;15.50;99238.00;;;;345176;28;97496;-88
2022/04/13 00:40:09;;;;;;;;;;;15.20;73.40;15.50;99232.00;;;;345652;28;83565;-87
2022/04/13 00:40:21;;;;;;;;;;;15.20;73.40;15.50;99234.00;;;;346640;28;96438;-88
2022/04/13 00:40:33;;;;;;;;;;;15.20;73.30;15.40;99238.00;;;;346092;28;82450;-88
2022/04/13 00:40:44;;;;;;;;;;;15.20;73.40;15.40;99231.00;;;;345088;28;94249;-88
2022/04/13 00:40:56;;;;;;;;;;;15.20;73.50;15.50;99239.00;;;;347506;28;83366;-88
2022/04/13 00:41:08;;;;;;;;;;;15.20;73.30;15.60;99240.00;;;;346597;28;96348;-88
2022/04/13 00:41:21;;;;;;;;;;;15.20;73.20;15.60;99242.00;;;;350268;27;83384;-88
2022/04/13 00:41:33;;;;;;;;;;;15.20;73.30;15.60;99236.00;;;;348131;27;93713;-88
2022/04/13 00:41:44;;;;;;;;;;;15.20;73.30;15.60;99244.00;;;;348946;27;82269;-88
2022/04/13 00:41:58;;;;;;;;;;;15.20;73.40;15.50;99239.00;;;;346633;27;96488;-88
2022/04/13 00:42:09;;;;;;;;;;;15.20;73.50;15.50;99240.00;;;;347435;28;83593;-88
2022/04/13 00:42:21;;;;;;;;;;;15.20;73.30;15.60;99247.00;;;;345365;28;95804;-88
2022/04/13 00:42:33;;;;;;;;;;;15.20;73.30;15.50;99233.00;;;;348885;27;83292;-88
2022/04/13 00:42:45;;;;;;;;;;;15.20;73.50;15.40;99236.00;;;;348171;27;95297;-88
2022/04/13 00:42:56;;;;;;;;;;;15.10;73.50;15.40;99240.00;;;;346029;28;83417;-88
2022/04/13 00:43:09;;;;;;;;;;;15.10;73.50;15.50;99235.00;;;;347410;27;96338;-88
2022/04/13 00:43:20;;;;;;;;;;;15.10;73.30;15.50;99241.00;;;;347334;28;83492;-88
2022/04/13 00:43:32;;;;;;;;;;;15.10;73.30;15.40;99242.00;;;;346652;28;98358;-88
2022/04/13 00:43:44;;;;;;;;;;;15.20;73.40;15.40;99241.00;;;;350453;27;83353;-88
2022/04/13 00:44:06;;;;;;;;;;;15.20;73.40;15.50;99236.00;;;;345239;28;96938;-88
2022/04/13 00:44:17;;;;;;;;;;;15.20;73.40;15.50;99235.00;;;;347438;28;83513;-88
2022/04/13 00:44:30;;;;;;;;;;;15.20;73.50;15.50;99236.00;;;;345335;28;94274;-88
2022/04/13 00:44:41;;;;;;;;;;;15.10;73.30;15.40;99250.00;;;;344624;28;83435;-88
2022/04/13 00:44:53;;;;;;;;;;;15.10;73.50;15.40;99243.00;;;;345306;28;96577;-88
2022/04/13 00:45:05;;;;;;;;;;;15.20;73.60;15.50;99242.00;;;;347513;28;82453;-88
2022/04/13 00:45:17;;;;;;;;;;;15.20;73.50;15.40;99240.00;;;;343841;28;96127;-87
2022/04/13 00:45:29;;;;;;;;;;;15.10;73.80;15.40;99243.00;;;;345981;28;83421;-88
2022/04/13 00:45:50;;;;;;;;;;;15.20;73.90;15.30;99246.00;;;;342605;28;97328;-88
2022/04/13 00:46:02;;;;;;;;;;;15.10;73.80;15.30;99240.00;;;;344775;28;83319;-88
2022/04/13 00:46:14;;;;;;;;;;;15.20;73.80;15.30;99249.00;;;;343779;28;97456;-88
2022/04/13 00:46:26;;;;;;;;;;;15.10;73.80;15.30;99242.00;;;;345926;28;83203;-87
2022/04/13 00:46:37;;;;;;;;;;;15.10;73.80;15.20;99238.00;;;;348034;27;94125;-88
2022/04/13 00:46:49;;;;;;;;;;;15.10;73.90;15.30;99244.00;;;;346101;28;83353;-87
2022/04/13 00:47:05;;;;;;;;;;;15.10;73.70;15.20;99235.00;;;;345402;28;96543;-87
2022/04/13 00:47:18;;;;;;;;;;;15.10;73.90;15.20;99243.00;;;;346036;28;83284;-88
2022/04/13 00:47:30;;;;;;;;;;;15.10;74.00;15.20;99241.00;;;;346704;28;94131;-87
2022/04/13 00:47:41;;;;;;;;;;;15.10;74.30;15.20;99234.00;;;;346139;28;83427;-89
2022/04/13 00:47:53;;;;;;;;;;;15.10;74.00;15.20;99239.00;;;;346616;28;97122;-88
2022/04/13 00:48:06;;;;;;;;;;;15.10;74.00;15.30;99236.00;;;;348904;27;83423;-87
2022/04/13 00:48:31;;;;;;;;;;;15.00;73.90;15.20;99237.00;;;;348068;27;95597;-88
2022/04/13 00:48:43;;;;;;;;;;;15.10;74.10;15.20;99235.00;;;;348986;27;83391;-88
2022/04/13 00:48:55;;;;;;;;;;;15.10;74.40;15.30;99244.00;;;;346727;28;95719;-88
2022/04/13 00:49:07;;;;;;;;;;;15.10;74.30;15.20;99242.00;;;;346474;28;85575;-88
2022/04/13 00:49:19;;;;;;;;;;;15.00;74.40;15.20;99244.00;;;;344558;28;94507;-88
2022/04/13 00:49:30;;;;;;;;;;;15.00;74.40;15.20;99244.00;;;;347544;28;82476;-88
2022/04/13 00:49:42;;;;;;;;;;;15.00;74.20;15.20;99240.00;;;;345430;28;94043;-88
2022/04/13 00:49:54;;;;;;;;;;;15.00;74.30;15.30;99244.00;;;;345944;28;83243;-88
2022/04/13 00:50:10;;;;;;;;;;;15.00;74.20;15.20;99243.00;;;;345884;28;97604;-88
2022/04/13 00:50:22;;;;;;;;;;;15.00;74.40;15.20;99243.00;;;;347439;28;83247;-87
2022/04/13 00:50:34;;;;;;;;;;;15.00;74.40;15.20;99239.00;;;;346589;27;95718;-87
2022/04/13 00:50:45;;;;;;;;;;;15.00;74.60;15.20;99240.00;;;;347549;28;83262;-88
2022/04/13 00:50:57;;;;;;;;;;;15.00;74.60;15.10;99236.00;;;;344033;28;94146;-88
2022/04/13 00:51:09;;;;;;;;;;;15.00;74.60;15.10;99232.00;;;;346115;28;83307;-88
2022/04/13 00:51:21;;;;;;;;;;;15.00;74.70;15.10;99233.00;;;;345279;28;96450;-87
2022/04/13 00:51:33;;;;;;;;;;;15.00;75.30;15.20;99246.00;;;;347470;28;83495;-87
2022/04/13 00:51:44;;;;;;;;;;;15.00;74.40;15.20;99240.00;;;;345453;28;92676;-88
2022/04/13 00:51:59;;;;;;;;;;;15.00;74.40;15.20;99246.00;;;;346122;28;83364;-88
2022/04/13 00:52:11;;;;;;;;;;;15.00;74.60;15.20;99239.00;;;;343582;28;97172;-88
2022/04/13 00:52:23;;;;;;;;;;;15.00;74.70;15.20;99243.00;;;;347412;28;82553;-88
2022/04/13 00:52:40;;;;;;;;;;;15.00;74.60;15.30;99245.00;;;;347584;27;96631;-87
2022/04/13 00:52:52;;;;;;;;;;;15.00;74.60;15.30;99236.00;;;;346141;28;83431;-87
2022/04/13 00:53:04;;;;;;;;;;;15.00;74.70;15.30;99237.00;;;;346766;28;93952;-87
2022/04/13 00:53:16;;;;;;;;;;;15.00;74.70;15.30;99240.00;;;;347384;27;82513;-88
2022/04/13 00:53:27;;;;;;;;;;;14.90;74.50;15.30;99245.00;;;;343845;28;96379;-87
2022/04/13 00:53:39;;;;;;;;;;;15.00;74.60;15.20;99234.00;;;;347511;28;83437;-88
2022/04/13 00:53:51;;;;;;;;;;;15.00;74.70;15.20;99242.00;;;;346649;28;95261;-88
2022/04/13 00:54:03;;;;;;;;;;;15.00;74.70;15.20;99245.00;;;;347462;28;83517;-88
2022/04/13 00:54:15;;;;;;;;;;;15.00;74.60;15.20;99241.00;;;;349429;27;94345;-87
2022/04/13 00:54:29;;;;;;;;;;;15.00;74.70;15.30;99247.00;;;;347386;28;83374;-87
2022/04/13 00:54:42;;;;;;;;;;;14.90;74.50;15.20;99243.00;;;;344920;28;96455;-87
2022/04/13 00:54:54;;;;;;;;;;;15.00;74.80;15.20;99245.00;;;;347405;28;83256;-88
2022/04/13 00:55:09;;;;;;;;;;;14.90;74.80;15.20;99242.00;;;;345643;28;94070;-88
2022/04/13 00:55:21;;;;;;;;;;;14.90;74.80;15.20;99241.00;;;;349426;27;86283;-87
2022/04/13 00:55:32;;;;;;;;;;;14.90;75.00;15.20;99234.00;;;;349451;27;93938;-87
2022/04/13 00:55:44;;;;;;;;;;;14.90;75.00;15.30;99241.00;;;;348840;27;83383;-87
2022/04/13 00:55:57;;;;;;;;;;;14.90;75.00;15.30;99250.00;;;;347968;27;96472;-88
2022/04/13 00:56:09;;;;;;;;;;;14.90;74.90;15.30;99248.00;;;;350210;27;83466;-87
2022/04/13 00:56:23;;;;;;;;;;;14.90;74.80;15.20;99235.00;;;;345191;28;97339;-88
2022/04/13 00:56:35;;;;;;;;;;;15.00;75.00;15.20;99244.00;;;;347429;28;83459;-87
2022/04/13 00:56:48;;;;;;;;;;;15.00;75.10;15.20;99249.00;;;;345396;28;94018;-88
2022/04/13 00:57:04;;;;;;;;;;;14.90;74.90;15.10;99243.00;;;;350374;27;82472;-88
2022/04/13 00:57:18;;;;;;;;;;;14.90;75.00;15.20;99241.00;;;;346597;28;96339;-87
2022/04/13 00:57:30;;;;;;;;;;;14.90;75.00;15.10;99241.00;;;;348681;27;83515;-88
2022/04/13 00:57:41;;;;;;;;;;;14.90;74.90;15.10;99243.00;;;;346533;28;96613;-88
2022/04/13 00:57:54;;;;;;;;;;;14.90;74.80;15.10;99243.00;;;;344627;28;83441;-88
2022/04/13 00:58:05;;;;;;;;;;;14.90;74.90;15.10;99240.00;;;;343616;28;96357;-87
2022/04/13 00:58:17;;;;;;;;;;;14.90;74.90;15.10;99240.00;;;;344494;28;82602;-87
2022/04/13 00:58:31;;;;;;;;;;;14.90;75.10;15.10;99237.00;;;;346494;28;96233;-88
2022/04/13 00:58:43;;;;;;;;;;;14.90;75.20;15.10;99237.00;;;;348858;27;83272;-87
2022/04/13 00:58:59;;;;;;;;;;;14.90;75.20;15.20;99241.00;;;;346676;28;96566;-88
2022/04/13 00:59:13;;;;;;;;;;;14.90;75.00;15.20;99247.00;;;;348435;27;83409;-87
2022/04/13 00:59:25;;;;;;;;;;;14.90;75.00;15.10;99240.00;;;;346644;28;96474;-88
2022/04/13 00:59:37;;;;;;;;;;;14.90;75.10;15.10;99244.00;;;;344740;28;83359;-88
2022/04/13 00:59:51;;;;;;;;;;;14.90;75.00;15.20;99248.00;;;;344967;28;97296;-88
2022/04/13 01:00:04;;;;;;;;;;;14.90;74.80;15.10;99237.00;;;;347489;28;83254;-88
2022/04/13 01:00:17;;;;;;;;;;;14.90;75.30;15.10;99242.00;;;;349530;27;97206;-87
2022/04/13 01:00:29;;;;;;;;;;;14.90;75.30;15.10;99240.00;;;;344581;28;82415;-88
2022/04/13 01:00:48;;;;;;;;;;;14.90;75.40;15.10;99237.00;;;;348115;27;96222;-87